createdAt,value
2019-05-20T00:00:50.160Z,50.77
2019-05-20T00:03:16.006Z,53.07
2019-05-20T00:05:42.166Z,49.60
2019-05-20T00:08:08.063Z,54.53
2019-05-20T00:10:33.928Z,52.13
2019-05-20T00:12:59.790Z,47.00
2019-05-20T00:15:25.652Z,52.27
2019-05-20T00:17:51.517Z,53.53
2019-05-20T00:20:17.446Z,45.00
2019-05-20T00:22:43.306Z,44.83
2019-05-20T00:25:09.259Z,50.60
2019-05-20T00:27:35.221Z,49.10
2019-05-20T00:30:01.298Z,48.27
2019-05-20T00:32:40.193Z,46.97
2019-05-20T00:34:54.903Z,52.33
2019-05-20T00:37:20.778Z,42.63
2019-05-20T00:39:46.649Z,44.00
2019-05-20T00:42:12.517Z,44.80
2019-05-20T00:44:38.378Z,48.10
2019-05-20T00:47:04.229Z,43.60
2019-05-20T00:49:30.084Z,44.43
2019-05-20T00:51:56.050Z,45.53
2019-05-20T00:54:22.112Z,38.53
2019-05-20T00:56:50.848Z,43.73
2019-05-20T00:59:16.681Z,39.60
2019-05-20T01:01:42.564Z,41.30
2019-05-20T01:04:08.419Z,42.47
2019-05-20T01:06:34.295Z,40.73
2019-05-20T01:09:00.159Z,50.10
2019-05-20T01:11:26.018Z,48.87
2019-05-20T01:13:51.903Z,52.17
2019-05-20T01:16:17.768Z,51.33
2019-05-20T01:18:43.632Z,49.30
2019-05-20T01:21:09.558Z,54.30
2019-05-20T01:23:35.473Z,56.60
2019-05-20T01:26:01.337Z,57.20
2019-05-20T01:28:27.199Z,57.57
2019-05-20T01:30:53.051Z,71.33
2019-05-20T01:33:18.920Z,64.00
2019-05-20T01:35:44.786Z,66.37
2019-05-20T01:38:10.657Z,66.83
2019-05-20T01:40:36.543Z,59.23
2019-05-20T01:43:02.406Z,58.33
2019-05-20T01:45:28.270Z,64.37
2019-05-20T01:47:54.139Z,64.57
2019-05-20T01:50:20.209Z,66.10
2019-05-20T01:52:46.064Z,60.27
2019-05-20T01:55:12.127Z,62.47
2019-05-20T01:57:38.023Z,63.17
2019-05-20T02:00:06.274Z,54.07
2019-05-20T02:02:32.127Z,60.80
2019-05-20T02:04:57.988Z,56.73
2019-05-20T02:07:23.850Z,62.83
2019-05-20T02:09:49.699Z,55.57
2019-05-20T02:12:15.568Z,49.37
2019-05-20T02:14:49.149Z,46.37
2019-05-20T02:17:15.043Z,46.40
2019-05-20T02:19:40.903Z,54.43
2019-05-20T02:22:06.795Z,47.90
2019-05-20T02:24:32.640Z,52.70
2019-05-20T02:26:58.533Z,47.97
2019-05-20T02:29:24.375Z,50.43
2019-05-20T02:31:50.245Z,48.60
2019-05-20T02:34:16.117Z,53.93
2019-05-20T02:36:41.979Z,50.87
2019-05-20T02:39:07.879Z,54.07
2019-05-20T02:41:33.834Z,53.03
2019-05-20T02:43:59.694Z,46.60
2019-05-20T02:46:25.575Z,51.40
2019-05-20T02:48:51.419Z,50.07
2019-05-20T02:51:20.056Z,44.80
2019-05-20T02:53:46.030Z,48.77
2019-05-20T02:56:11.989Z,42.70
2019-05-20T02:58:37.878Z,46.37
2019-05-20T03:01:03.727Z,44.93
2019-05-20T03:03:30.420Z,47.23
2019-05-20T03:05:56.277Z,48.40
2019-05-20T03:08:22.142Z,45.00
2019-05-20T03:10:48.002Z,49.70
2019-05-20T03:13:13.897Z,46.97
2019-05-20T03:15:39.753Z,46.33
2019-05-20T03:18:05.614Z,45.37
2019-05-20T03:20:31.476Z,46.23
2019-05-20T03:22:57.333Z,43.33
2019-05-20T03:25:23.217Z,45.47
2019-05-20T03:27:49.099Z,47.57
2019-05-20T03:30:15.143Z,52.10
2019-05-20T03:32:41.029Z,49.03
2019-05-20T03:35:07.282Z,48.80
2019-05-20T03:37:33.111Z,49.87
2019-05-20T03:39:58.976Z,49.33
2019-05-20T03:42:24.836Z,53.00
2019-05-20T03:44:50.991Z,50.57
2019-05-20T03:47:16.875Z,49.67
2019-05-20T03:49:42.745Z,57.27
2019-05-20T03:52:08.595Z,54.73
2019-05-20T03:54:34.450Z,53.13
2019-05-20T03:57:00.313Z,55.10
2019-05-20T03:59:26.160Z,65.37
2019-05-20T04:01:52.009Z,63.20
2019-05-20T04:04:17.906Z,61.23
2019-05-20T04:06:43.757Z,60.77
2019-05-20T04:09:09.616Z,63.87
2019-05-20T04:11:35.482Z,67.27
2019-05-20T04:14:01.329Z,68.73
2019-05-20T04:16:27.180Z,70.63
2019-05-20T04:18:54.092Z,72.80
2019-05-20T04:21:20.445Z,69.10
2019-05-20T04:23:46.529Z,78.40
2019-05-20T04:26:12.514Z,68.57
2019-05-20T04:28:38.377Z,79.20
2019-05-20T04:31:04.242Z,80.33
2019-05-20T04:33:30.105Z,80.17
2019-05-20T04:35:55.971Z,75.80
2019-05-20T04:38:22.041Z,67.93
2019-05-20T04:40:47.906Z,64.77
2019-05-20T04:43:14.184Z,65.73
2019-05-20T04:45:40.438Z,68.63
2019-05-20T04:48:06.307Z,65.23
2019-05-20T04:50:32.159Z,73.03
2019-05-20T04:52:58.017Z,60.57
2019-05-20T04:55:23.881Z,58.17
2019-05-20T04:57:49.761Z,54.27
2019-05-20T05:00:19.492Z,43.67
2019-05-20T05:02:45.354Z,48.63
2019-05-20T05:05:11.566Z,46.03
2019-05-20T05:07:37.436Z,46.10
2019-05-20T05:10:06.594Z,40.97
2019-05-20T05:12:32.446Z,36.70
2019-05-20T05:14:58.334Z,38.37
2019-05-20T05:17:24.295Z,37.43
2019-05-20T05:19:50.588Z,38.20
2019-05-20T05:22:16.658Z,35.50
2019-05-20T05:24:42.528Z,41.20
2019-05-20T05:27:08.377Z,41.60
2019-05-20T05:29:34.244Z,39.97
2019-05-20T05:32:00.123Z,35.57
2019-05-20T05:34:26.003Z,38.63
2019-05-20T05:36:51.853Z,45.30
2019-05-20T05:39:17.722Z,38.80
2019-05-20T05:41:43.579Z,35.33
2019-05-20T05:44:09.450Z,37.67
2019-05-20T05:46:35.323Z,36.43
2019-05-20T05:49:01.180Z,43.73
2019-05-20T05:51:27.055Z,43.47
2019-05-20T05:53:52.930Z,43.13
2019-05-20T05:56:18.786Z,42.30
2019-05-20T05:58:44.665Z,44.23
2019-05-20T06:01:10.526Z,41.40
2019-05-20T06:03:36.478Z,40.63
2019-05-20T06:06:11.923Z,37.50
2019-05-20T06:08:30.177Z,40.33
2019-05-20T06:10:56.051Z,42.20
2019-05-20T06:13:21.949Z,38.37
2019-05-20T06:15:47.857Z,36.37
2019-05-20T06:18:13.717Z,42.97
2019-05-20T06:20:39.592Z,44.57
2019-05-20T06:23:05.461Z,42.67
2019-05-20T06:25:31.315Z,43.13
2019-05-20T06:27:57.173Z,45.73
2019-05-20T06:30:26.856Z,45.53
2019-05-20T06:32:52.721Z,48.83
2019-05-20T06:35:18.780Z,44.03
2019-05-20T06:37:49.356Z,48.90
2019-05-20T06:40:15.677Z,47.40
2019-05-20T06:42:41.636Z,46.70
2019-05-20T06:45:07.988Z,49.27
2019-05-20T06:47:34.342Z,48.57
2019-05-20T06:50:00.206Z,49.73
2019-05-20T06:52:35.258Z,49.60
2019-05-20T06:54:53.917Z,52.13
2019-05-20T06:57:23.751Z,51.23
2019-05-20T06:59:48.904Z,50.40
2019-05-20T07:02:14.768Z,54.27
2019-05-20T07:04:40.643Z,47.97
2019-05-20T07:07:19.883Z,55.17
2019-05-20T07:09:34.328Z,53.30
2019-05-20T07:12:00.199Z,54.20
2019-05-20T07:14:26.170Z,52.67
2019-05-20T07:16:52.027Z,52.33
2019-05-20T07:19:17.886Z,51.20
2019-05-20T07:21:43.822Z,53.93
2019-05-20T07:24:09.687Z,47.77
2019-05-20T07:26:35.645Z,49.47
2019-05-20T07:29:01.705Z,47.57
2019-05-20T07:31:27.570Z,53.20
2019-05-20T07:33:53.430Z,48.10
2019-05-20T07:36:19.291Z,45.97
2019-05-20T07:38:45.177Z,51.10
2019-05-20T07:41:11.129Z,48.73
2019-05-20T07:43:37.156Z,48.67
2019-05-20T07:46:03.735Z,45.87
2019-05-20T07:48:29.737Z,48.80
2019-05-20T07:50:56.461Z,49.43
2019-05-20T07:53:23.118Z,46.67
2019-05-20T07:55:58.568Z,45.23
2019-05-20T08:00:51.417Z,39.53
2019-05-20T08:03:17.273Z,38.73
2019-05-20T08:05:43.167Z,36.30
2019-05-20T08:08:09.019Z,34.43
2019-05-20T08:10:34.901Z,34.03
2019-05-20T08:13:00.769Z,37.50
2019-05-20T08:15:26.603Z,39.83
2019-05-20T08:17:52.572Z,29.43
2019-05-20T08:20:20.477Z,35.83
2019-05-20T08:22:46.356Z,36.17
2019-05-20T08:25:12.602Z,35.63
2019-05-20T08:27:38.505Z,32.17
2019-05-20T08:30:06.472Z,32.73
2019-05-20T08:32:32.431Z,34.97
2019-05-20T08:34:58.323Z,38.37
2019-05-20T08:37:24.166Z,36.03
2019-05-20T08:39:50.069Z,33.13
2019-05-20T08:42:15.981Z,33.70
2019-05-20T08:44:41.774Z,35.80
2019-05-20T08:47:07.657Z,32.70
2019-05-20T08:49:33.549Z,31.60
2019-05-20T08:51:59.398Z,39.43
2019-05-20T08:54:25.268Z,34.37
2019-05-20T08:56:51.124Z,35.70
2019-05-20T08:59:16.999Z,36.43
2019-05-20T09:01:42.889Z,39.10
2019-05-20T09:04:08.734Z,37.00
2019-05-20T09:06:34.646Z,38.53
2019-05-20T09:09:00.521Z,38.90
2019-05-20T09:11:26.374Z,48.00
2019-05-20T09:13:52.283Z,47.67
2019-05-20T09:16:18.135Z,51.20
2019-05-20T09:18:43.983Z,48.87
2019-05-20T09:21:10.157Z,54.80
2019-05-20T09:23:36.446Z,49.20
2019-05-20T09:26:02.374Z,48.57
2019-05-20T09:28:28.277Z,48.43
2019-05-20T09:30:54.439Z,45.73
2019-05-20T09:33:21.179Z,44.70
2019-05-20T09:35:47.072Z,51.67
2019-05-20T09:38:20.135Z,45.97
2019-05-20T09:40:46.228Z,48.70
2019-05-20T09:43:12.379Z,48.77
2019-05-20T09:45:38.467Z,47.57
2019-05-20T09:48:05.529Z,44.43
2019-05-20T09:50:31.594Z,37.30
2019-05-20T09:52:57.441Z,42.57
2019-05-20T09:55:23.325Z,42.17
2019-05-20T09:57:49.186Z,39.77
2019-05-20T10:00:16.278Z,40.27
2019-05-20T10:02:42.152Z,32.93
2019-05-20T10:05:08.273Z,37.47
2019-05-20T10:07:34.359Z,33.00
2019-05-20T10:10:00.215Z,35.60
2019-05-20T10:12:44.529Z,32.27
2019-05-20T10:14:53.860Z,34.80
2019-05-20T10:17:20.126Z,35.00
2019-05-20T10:19:45.993Z,31.10
2019-05-20T10:22:12.126Z,36.03
2019-05-20T10:24:38.070Z,36.70
2019-05-20T10:27:05.077Z,33.47
2019-05-20T10:29:30.989Z,31.80
2019-05-20T10:31:56.849Z,36.27
2019-05-20T10:34:22.742Z,33.47
2019-05-20T10:36:48.583Z,35.70
2019-05-20T10:39:14.442Z,31.10
2019-05-20T10:41:40.313Z,34.07
2019-05-20T10:44:06.177Z,33.57
2019-05-20T10:46:32.040Z,30.97
2019-05-20T10:48:58.112Z,26.23
2019-05-20T10:51:23.979Z,39.50
2019-05-20T10:53:49.825Z,30.13
2019-05-20T10:56:15.765Z,28.27
2019-05-20T10:58:41.627Z,29.97
2019-05-20T11:01:08.354Z,30.57
2019-05-20T11:03:34.230Z,29.47
2019-05-20T11:06:00.085Z,26.73
2019-05-20T11:08:25.942Z,25.87
2019-05-20T11:10:51.860Z,27.07
2019-05-20T11:13:17.775Z,28.63
2019-05-20T11:15:43.680Z,28.87
2019-05-20T11:18:09.571Z,31.70
2019-05-20T11:20:35.421Z,28.90
2019-05-20T11:23:01.557Z,30.53
2019-05-20T11:25:27.451Z,24.70
2019-05-20T11:27:53.304Z,29.03
2019-05-20T11:30:21.178Z,24.23
2019-05-20T11:32:47.029Z,24.87
2019-05-20T11:35:13.800Z,21.23
2019-05-20T11:37:39.688Z,23.73
2019-05-20T11:40:06.858Z,23.00
2019-05-20T11:42:32.757Z,24.37
2019-05-20T11:44:58.629Z,24.40
2019-05-20T11:47:24.504Z,23.33
2019-05-20T11:49:50.375Z,20.27
2019-05-20T11:52:16.241Z,22.67
2019-05-20T11:54:42.116Z,18.30
2019-05-20T11:57:07.965Z,23.33
2019-05-20T11:59:33.845Z,22.47
2019-05-20T12:02:03.723Z,19.67
2019-05-20T12:04:27.479Z,24.17
2019-05-20T12:06:53.346Z,22.23
2019-05-20T12:09:19.201Z,23.40
2019-05-20T12:11:45.061Z,22.43
2019-05-20T12:14:10.926Z,23.37
2019-05-20T12:16:36.770Z,21.77
2019-05-20T12:19:02.823Z,23.23
2019-05-20T12:21:28.719Z,24.03
2019-05-20T12:23:54.536Z,27.10
2019-05-20T12:26:22.569Z,23.70
2019-05-20T12:28:48.316Z,29.73
2019-05-20T12:31:14.178Z,23.90
2019-05-20T12:33:40.044Z,22.17
2019-05-20T12:36:05.913Z,23.57
2019-05-20T12:38:31.792Z,22.87
2019-05-20T12:40:57.648Z,25.63
2019-05-20T12:43:23.535Z,24.70
2019-05-20T12:45:49.399Z,22.57
2019-05-20T12:48:15.305Z,23.77
2019-05-20T12:50:41.139Z,22.47
2019-05-20T12:53:06.994Z,22.43
2019-05-20T12:55:32.846Z,23.03
2019-05-20T12:57:58.709Z,26.00
2019-05-20T13:00:24.622Z,20.83
2019-05-20T13:02:51.346Z,25.47
2019-05-20T13:05:17.205Z,29.57
2019-05-20T13:07:43.095Z,23.83
2019-05-20T13:10:26.840Z,23.23
2019-05-20T13:12:37.387Z,24.80
2019-05-20T13:15:05.723Z,20.13
2019-05-20T13:17:32.183Z,21.77
2019-05-20T13:19:59.524Z,22.37
2019-05-20T13:22:25.395Z,24.97
2019-05-20T13:24:51.271Z,23.50
2019-05-20T13:27:17.137Z,20.67
2019-05-20T13:29:43.040Z,21.17
2019-05-20T13:32:08.955Z,24.40
2019-05-20T13:34:34.814Z,22.33
2019-05-20T13:37:00.844Z,20.23
2019-05-20T13:39:26.775Z,23.60
2019-05-20T13:41:52.691Z,25.77
2019-05-20T13:44:18.565Z,24.30
2019-05-20T13:46:44.451Z,27.00
2019-05-20T13:49:10.355Z,26.57
2019-05-20T13:51:38.523Z,28.13
2019-05-20T13:54:04.035Z,26.63
2019-05-20T13:56:29.897Z,22.23
2019-05-20T13:58:55.791Z,27.53
2019-05-20T14:01:21.709Z,30.73
2019-05-20T14:03:48.481Z,31.97
2019-05-20T14:06:14.349Z,28.40
2019-05-20T14:08:40.244Z,23.10
2019-05-20T14:11:06.106Z,30.93
2019-05-20T14:13:31.990Z,28.27
2019-05-20T14:15:57.908Z,32.13
2019-05-20T14:18:26.687Z,32.57
2019-05-20T14:20:52.580Z,32.30
2019-05-20T14:23:18.437Z,32.90
2019-05-20T14:25:44.293Z,36.90
2019-05-20T14:28:10.164Z,33.20
2019-05-20T14:30:36.025Z,34.63
2019-05-20T14:33:02.088Z,30.83
2019-05-20T14:35:28.083Z,29.40
2019-05-20T14:37:53.987Z,31.27
2019-05-20T14:40:19.865Z,33.33
2019-05-20T14:42:45.737Z,35.20
2019-05-20T14:45:11.710Z,32.20
2019-05-20T14:47:37.613Z,32.40
2019-05-20T14:50:05.498Z,24.73
2019-05-20T14:52:31.352Z,35.17
2019-05-20T14:54:57.236Z,32.43
2019-05-20T14:57:23.098Z,34.03
2019-05-20T14:59:48.973Z,33.67
2019-05-20T15:02:14.898Z,32.53
2019-05-20T15:04:40.761Z,30.17
2019-05-20T15:07:06.627Z,32.43
2019-05-20T15:09:32.499Z,31.30
2019-05-20T15:11:58.368Z,30.50
2019-05-20T15:14:24.302Z,34.27
2019-05-20T15:16:50.153Z,30.80
2019-05-20T15:19:16.097Z,32.37
2019-05-20T15:21:41.979Z,34.73
2019-05-20T15:24:07.847Z,33.60
2019-05-20T15:26:33.710Z,34.23
2019-05-20T15:28:59.575Z,30.70
2019-05-20T15:31:25.437Z,34.60
2019-05-20T15:33:51.298Z,31.47
2019-05-20T15:36:17.169Z,29.67
2019-05-20T15:38:43.014Z,32.63
2019-05-20T15:41:08.937Z,31.37
2019-05-20T15:43:34.901Z,34.77
2019-05-20T15:46:00.771Z,36.77
2019-05-20T15:48:26.687Z,32.53
2019-05-20T15:50:52.552Z,30.93
2019-05-20T15:53:18.419Z,32.77
2019-05-20T15:55:44.343Z,32.83
2019-05-20T15:58:10.197Z,34.17
2019-05-20T16:00:36.058Z,36.07
2019-05-20T16:03:01.950Z,31.27
2019-05-20T16:05:28.683Z,35.20
2019-05-20T16:07:54.570Z,34.23
2019-05-20T16:10:20.427Z,37.90
2019-05-20T16:12:46.274Z,35.80
2019-05-20T16:15:12.360Z,34.87
2019-05-20T16:17:38.245Z,32.63
2019-05-20T16:20:07.195Z,32.50
2019-05-20T16:22:33.252Z,30.80
2019-05-20T16:24:59.121Z,27.23
2019-05-20T16:27:24.982Z,28.80
2019-05-20T16:30:05.328Z,30.17
2019-05-20T16:32:18.685Z,30.80
2019-05-20T16:34:44.536Z,33.90
2019-05-20T16:37:10.438Z,33.60
2019-05-20T16:39:36.364Z,33.03
2019-05-20T16:42:02.169Z,32.57
2019-05-20T16:44:28.220Z,30.00
2019-05-20T16:46:54.104Z,30.57
2019-05-20T16:49:19.980Z,32.33
2019-05-20T16:51:45.828Z,29.97
2019-05-20T16:54:11.699Z,30.10
2019-05-20T16:56:37.568Z,31.10
2019-05-20T16:59:03.459Z,35.87
2019-05-20T17:01:29.323Z,39.63
2019-05-20T17:03:55.179Z,34.53
2019-05-20T17:06:21.153Z,45.83
2019-05-20T17:08:47.911Z,43.60
2019-05-20T17:11:13.766Z,44.57
2019-05-20T17:13:39.640Z,42.07
2019-05-20T17:16:05.501Z,52.03
2019-05-20T17:18:31.362Z,46.93
2019-05-20T17:20:57.319Z,46.23
2019-05-20T17:23:23.176Z,56.27
2019-05-20T17:28:16.928Z,49.63
2019-05-20T17:30:45.238Z,49.20
2019-05-20T17:33:10.702Z,52.70
2019-05-20T17:35:36.775Z,49.27
2019-05-20T17:38:03.031Z,50.53
2019-05-20T17:40:28.905Z,49.07
2019-05-20T17:42:54.772Z,49.43
2019-05-20T17:45:20.843Z,52.67
2019-05-20T17:47:46.708Z,43.87
2019-05-20T17:50:14.178Z,44.77
2019-05-20T17:52:40.058Z,45.30
2019-05-20T17:55:06.451Z,42.50
2019-05-20T17:57:32.376Z,37.33
2019-05-20T17:59:58.249Z,43.43
2019-05-20T18:02:24.139Z,34.87
2019-05-20T18:04:49.989Z,36.73
2019-05-20T18:07:15.867Z,33.13
2019-05-20T18:09:43.656Z,34.57
2019-05-20T18:12:09.526Z,38.93
2019-05-20T18:14:35.382Z,33.50
2019-05-20T18:17:01.257Z,39.07
2019-05-20T18:19:27.211Z,34.50
2019-05-20T18:21:53.150Z,29.77
2019-05-20T18:24:19.023Z,35.00
2019-05-20T18:26:44.882Z,33.93
2019-05-20T18:29:10.762Z,36.07
2019-05-20T18:31:36.627Z,23.17
2019-05-20T18:34:02.793Z,29.67
2019-05-20T18:36:28.656Z,28.27
2019-05-20T18:38:54.522Z,29.53
2019-05-20T18:41:20.381Z,37.33
2019-05-20T18:43:46.274Z,27.67
2019-05-20T18:46:12.137Z,27.90
2019-05-20T18:48:38.031Z,25.13
2019-05-20T18:51:03.910Z,32.60
2019-05-20T18:53:29.762Z,27.77
2019-05-20T18:55:55.630Z,27.00
2019-05-20T18:58:21.532Z,32.43
2019-05-20T19:00:47.397Z,28.23
2019-05-20T19:03:13.261Z,26.90
2019-05-20T19:05:39.194Z,29.10
2019-05-20T19:08:05.046Z,21.67
2019-05-20T19:10:30.936Z,37.53
2019-05-20T19:12:56.817Z,31.23
2019-05-20T19:15:22.883Z,23.50
2019-05-20T19:17:48.880Z,28.63
2019-05-20T19:20:14.757Z,27.20
2019-05-20T19:22:40.715Z,31.30
2019-05-20T19:25:07.109Z,39.10
2019-05-20T19:27:33.063Z,38.47
2019-05-20T19:29:59.031Z,33.60
2019-05-20T19:32:25.147Z,37.93
2019-05-20T19:34:50.981Z,38.10
2019-05-20T19:37:16.842Z,30.97
2019-05-20T19:39:42.700Z,26.63
2019-05-20T19:42:08.567Z,31.70
2019-05-20T19:44:34.416Z,28.50
2019-05-20T19:47:00.301Z,33.23
2019-05-20T19:49:26.147Z,27.73
2019-05-20T19:51:52.009Z,30.03
2019-05-20T19:54:17.883Z,26.87
2019-05-20T19:56:43.739Z,32.60
2019-05-20T19:59:09.627Z,39.27
2019-05-20T20:01:35.486Z,27.97
2019-05-20T20:04:01.353Z,31.57
2019-05-20T20:06:27.228Z,33.13
2019-05-20T20:08:53.090Z,28.50
2019-05-20T20:11:18.979Z,35.60
2019-05-20T20:13:44.854Z,35.90
2019-05-20T20:16:10.819Z,34.50
2019-05-20T20:18:36.645Z,38.60
2019-05-20T20:21:02.499Z,40.80
2019-05-20T20:23:28.357Z,44.87
2019-05-20T20:25:54.211Z,40.13
2019-05-20T20:28:20.100Z,36.23
2019-05-20T20:30:45.978Z,32.63
2019-05-20T20:33:11.814Z,42.23
2019-05-20T20:35:38.553Z,27.40
2019-05-20T20:38:04.502Z,37.90
2019-05-20T20:40:30.459Z,33.93
2019-05-20T20:42:56.330Z,32.70
2019-05-20T20:45:22.214Z,40.70
2019-05-20T20:47:48.078Z,36.40
2019-05-20T20:50:14.592Z,36.90
2019-05-20T20:52:40.452Z,43.47
2019-05-20T20:55:06.628Z,39.57
2019-05-20T20:57:32.531Z,36.80
2019-05-20T20:59:58.389Z,33.47
2019-05-20T21:02:24.260Z,34.47
2019-05-20T21:04:50.214Z,27.13
2019-05-20T21:07:16.084Z,32.77
2019-05-20T21:09:41.942Z,27.87
2019-05-20T21:12:07.839Z,29.07
2019-05-20T21:14:33.708Z,34.63
2019-05-20T21:16:59.550Z,41.20
2019-05-20T21:19:25.438Z,37.87
2019-05-20T21:21:51.319Z,47.90
2019-05-20T21:24:17.154Z,47.93
2019-05-20T21:26:43.017Z,48.00
2019-05-20T21:29:08.885Z,47.73
2019-05-20T21:31:34.758Z,46.10
2019-05-20T21:34:00.608Z,44.20
2019-05-20T21:36:26.648Z,42.57
2019-05-20T21:38:52.551Z,51.10
2019-05-20T21:41:18.432Z,44.00
2019-05-20T21:43:44.279Z,51.87
2019-05-20T21:46:10.154Z,50.90
2019-05-20T21:48:36.010Z,61.47
2019-05-20T21:51:01.886Z,56.57
2019-05-20T21:53:27.748Z,46.63
2019-05-20T21:55:53.612Z,49.83
2019-05-20T21:58:19.469Z,53.80
2019-05-20T22:00:47.335Z,52.33
2019-05-20T22:03:23.852Z,53.27
2019-05-20T22:05:41.064Z,54.47
2019-05-20T22:08:06.916Z,49.30
2019-05-20T22:10:32.778Z,50.60
2019-05-20T22:12:58.638Z,58.87
2019-05-20T22:15:24.501Z,52.13
2019-05-20T22:17:50.365Z,44.03
2019-05-20T22:20:16.233Z,45.27
2019-05-20T22:22:43.993Z,51.90
2019-05-20T22:25:10.159Z,56.50
2019-05-20T22:27:36.024Z,53.63
2019-05-20T22:30:04.379Z,59.07
2019-05-20T22:32:30.248Z,42.60
2019-05-20T22:34:56.093Z,50.57
2019-05-20T22:37:21.962Z,57.43
2019-05-20T22:39:47.830Z,55.67
2019-05-20T22:42:13.789Z,47.00
2019-05-20T22:44:39.652Z,49.67
2019-05-20T22:47:05.520Z,49.93
2019-05-20T22:49:31.390Z,45.47
2019-05-20T22:51:57.260Z,38.43
2019-05-20T22:54:23.119Z,43.57
2019-05-20T22:56:48.996Z,45.07
2019-05-20T22:59:14.839Z,43.33
2019-05-20T23:01:40.705Z,44.80
2019-05-20T23:04:06.555Z,38.90
2019-05-20T23:06:32.411Z,42.03
2019-05-20T23:08:58.284Z,47.30
2019-05-20T23:11:24.139Z,45.13
2019-05-20T23:13:50.006Z,47.77
2019-05-20T23:16:15.898Z,40.60
2019-05-20T23:18:41.765Z,50.70
2019-05-20T23:21:07.625Z,48.77
2019-05-20T23:23:33.486Z,48.17
2019-05-20T23:25:59.361Z,54.50
2019-05-20T23:28:25.222Z,47.63
2019-05-20T23:30:51.076Z,51.87
2019-05-20T23:33:16.925Z,49.13
2019-05-20T23:35:42.798Z,46.67
2019-05-20T23:38:08.682Z,50.97
2019-05-20T23:40:34.535Z,47.77
2019-05-20T23:43:00.399Z,46.90
2019-05-20T23:45:26.251Z,46.87
2019-05-20T23:47:52.109Z,47.90
2019-05-20T23:50:17.963Z,40.40
2019-05-20T23:52:43.843Z,46.77
2019-05-20T23:55:10.714Z,45.53
2019-05-20T23:57:36.586Z,43.93
